sensor_id;sensor_type;location;lat;lon;timestamp;pressure;altitude;pressure_sealevel;temperature;humidity
74621;BME280;75998;47.550;19.254;2024-03-02T00:00:19;98570.25;;;8.10;85.36
74621;BME280;75998;47.550;19.254;2024-03-02T00:02:47;98638.28;;;8.45;85.32
74621;BME280;75998;47.550;19.254;2024-03-02T00:05:14;98616.63;;;8.31;85.66
74621;BME280;75998;47.550;19.254;2024-03-02T00:07:42;98551.69;;;7.89;85.72
74621;BME280;75998;47.550;19.254;2024-03-02T00:10:09;98542.47;;;7.98;85.75
74621;BME280;75998;47.550;19.254;2024-03-02T00:12:39;98566.84;;;8.10;85.36
74621;BME280;75998;47.550;19.254;2024-03-02T00:15:16;98595.63;;;8.34;85.67
74621;BME280;75998;47.550;19.254;2024-03-02T00:17:54;98527.06;;;7.95;85.11
74621;BME280;75998;47.550;19.254;2024-03-02T00:20:22;98573.63;;;8.12;86.00
74621;BME280;75998;47.550;19.254;2024-03-02T00:22:51;98569.72;;;7.92;85.84
74621;BME280;75998;47.550;19.254;2024-03-02T00:25:17;98636.63;;;8.30;86.05
74621;BME280;75998;47.550;19.254;2024-03-02T00:27:47;98631.34;;;8.32;86.01
74621;BME280;75998;47.550;19.254;2024-03-02T00:33:11;98590.81;;;8.15;85.57
74621;BME280;75998;47.550;19.254;2024-03-02T00:35:45;98502.31;;;7.62;84.59
74621;BME280;75998;47.550;19.254;2024-03-02T00:38:11;98637.13;;;8.50;84.49
74621;BME280;75998;47.550;19.254;2024-03-02T00:40:37;98495.97;;;7.66;83.99
74621;BME280;75998;47.550;19.254;2024-03-02T00:43:03;98648.09;;;8.55;83.55
74621;BME280;75998;47.550;19.254;2024-03-02T00:45:30;98579.75;;;8.11;83.91
74621;BME280;75998;47.550;19.254;2024-03-02T00:47:56;98602.28;;;8.25;83.88
74621;BME280;75998;47.550;19.254;2024-03-02T00:50:22;98567.22;;;8.04;83.62
74621;BME280;75998;47.550;19.254;2024-03-02T00:52:47;98634.22;;;8.54;83.53
74621;BME280;75998;47.550;19.254;2024-03-02T00:55:16;98614.66;;;8.49;82.91
74621;BME280;75998;47.550;19.254;2024-03-02T00:57:41;98610.41;;;8.33;83.63
74621;BME280;75998;47.550;19.254;2024-03-02T01:00:09;98569.84;;;8.04;83.45
74621;BME280;75998;47.550;19.254;2024-03-02T01:02:43;98468.84;;;7.43;83.51
74621;BME280;75998;47.550;19.254;2024-03-02T01:05:10;98586.31;;;8.17;83.78
74621;BME280;75998;47.550;19.254;2024-03-02T01:07:38;98471.25;;;7.46;83.57
74621;BME280;75998;47.550;19.254;2024-03-02T01:10:06;98616.81;;;8.42;83.72
74621;BME280;75998;47.550;19.254;2024-03-02T01:12:33;98509.72;;;7.81;83.57
74621;BME280;75998;47.550;19.254;2024-03-02T01:15:02;98617.75;;;8.54;83.40
74621;BME280;75998;47.550;19.254;2024-03-02T01:17:31;98590.31;;;8.35;83.39
74621;BME280;75998;47.550;19.254;2024-03-02T01:19:56;98515.50;;;7.99;83.35
74621;BME280;75998;47.550;19.254;2024-03-02T01:22:25;98555.09;;;8.17;83.57
74621;BME280;75998;47.550;19.254;2024-03-02T01:24:51;98536.91;;;7.90;84.13
74621;BME280;75998;47.550;19.254;2024-03-02T01:27:17;98596.31;;;8.23;83.99
74621;BME280;75998;47.550;19.254;2024-03-02T01:29:42;98495.34;;;7.63;84.55
74621;BME280;75998;47.550;19.254;2024-03-02T01:32:07;98567.16;;;8.05;84.70
74621;BME280;75998;47.550;19.254;2024-03-02T01:34:33;98505.22;;;7.70;85.03
74621;BME280;75998;47.550;19.254;2024-03-02T01:36:58;98598.53;;;8.29;84.65
74621;BME280;75998;47.550;19.254;2024-03-02T01:39:27;98502.63;;;7.70;84.99
74621;BME280;75998;47.550;19.254;2024-03-02T01:41:52;98562.25;;;8.13;84.69
74621;BME280;75998;47.550;19.254;2024-03-02T01:44:18;98600.19;;;8.30;84.42
74621;BME280;75998;47.550;19.254;2024-03-02T01:46:43;98466.00;;;7.61;84.09
74621;BME280;75998;47.550;19.254;2024-03-02T01:49:09;98555.13;;;8.30;83.15
74621;BME280;75998;47.550;19.254;2024-03-02T01:51:34;98527.06;;;8.08;82.29
74621;BME280;75998;47.550;19.254;2024-03-02T01:54:01;98478.03;;;7.89;82.24
74621;BME280;75998;47.550;19.254;2024-03-02T01:56:29;98550.44;;;8.35;82.10
74621;BME280;75998;47.550;19.254;2024-03-02T01:58:58;98596.66;;;8.71;81.37
74621;BME280;75998;47.550;19.254;2024-03-02T02:01:23;98506.28;;;8.20;80.77
74621;BME280;75998;47.550;19.254;2024-03-02T02:03:50;98600.59;;;8.77;80.46
74621;BME280;75998;47.550;19.254;2024-03-02T02:06:18;98504.81;;;8.16;80.58
74621;BME280;75998;47.550;19.254;2024-03-02T02:08:43;98511.47;;;8.20;80.54
74621;BME280;75998;47.550;19.254;2024-03-02T02:11:10;98552.16;;;8.49;80.42
74621;BME280;75998;47.550;19.254;2024-03-02T02:13:36;98538.97;;;8.37;79.76
74621;BME280;75998;47.550;19.254;2024-03-02T02:16:06;98522.53;;;8.37;79.41
74621;BME280;75998;47.550;19.254;2024-03-02T02:18:32;98606.56;;;8.79;79.63
74621;BME280;75998;47.550;19.254;2024-03-02T02:21:02;98615.00;;;8.82;80.22
74621;BME280;75998;47.550;19.254;2024-03-02T02:23:27;98570.28;;;8.63;79.43
74621;BME280;75998;47.550;19.254;2024-03-02T02:25:53;98585.69;;;8.66;79.95
74621;BME280;75998;47.550;19.254;2024-03-02T02:28:18;98517.41;;;8.22;79.64
74621;BME280;75998;47.550;19.254;2024-03-02T02:30:45;98555.78;;;8.46;80.21
74621;BME280;75998;47.550;19.254;2024-03-02T02:33:11;98528.25;;;8.29;79.87
74621;BME280;75998;47.550;19.254;2024-03-02T02:35:36;98606.88;;;8.74;80.33
74621;BME280;75998;47.550;19.254;2024-03-02T02:38:02;98617.91;;;8.78;79.68
74621;BME280;75998;47.550;19.254;2024-03-02T02:40:34;98558.91;;;8.38;80.08
74621;BME280;75998;47.550;19.254;2024-03-02T02:42:59;98563.41;;;8.49;79.68
74621;BME280;75998;47.550;19.254;2024-03-02T02:45:25;98594.06;;;8.71;79.76
74621;BME280;75998;47.550;19.254;2024-03-02T02:47:50;98513.84;;;8.11;80.16
74621;BME280;75998;47.550;19.254;2024-03-02T02:50:16;98497.81;;;8.04;80.44
74621;BME280;75998;47.550;19.254;2024-03-02T02:52:42;98448.63;;;7.61;80.35
74621;BME280;75998;47.550;19.254;2024-03-02T02:55:10;98601.88;;;8.71;80.38
74621;BME280;75998;47.550;19.254;2024-03-02T02:57:37;98387.03;;;7.36;80.17
74621;BME280;75998;47.550;19.254;2024-03-02T03:00:11;98531.88;;;8.27;80.09
74621;BME280;75998;47.550;19.254;2024-03-02T03:02:42;98581.63;;;8.49;80.16
74621;BME280;75998;47.550;19.254;2024-03-02T03:05:12;98467.50;;;7.77;80.86
74621;BME280;75998;47.550;19.254;2024-03-02T03:07:40;98585.59;;;8.55;80.28
74621;BME280;75998;47.550;19.254;2024-03-02T03:10:07;98611.63;;;8.67;80.53
74621;BME280;75998;47.550;19.254;2024-03-02T03:12:33;98542.31;;;8.27;80.67
74621;BME280;75998;47.550;19.254;2024-03-02T03:15:02;98386.66;;;7.15;81.32
74621;BME280;75998;47.550;19.254;2024-03-02T03:17:29;98638.50;;;8.55;81.65
74621;BME280;75998;47.550;19.254;2024-03-02T03:19:55;98514.38;;;8.03;80.92
74621;BME280;75998;47.550;19.254;2024-03-02T03:22:25;98550.50;;;8.20;81.25
74621;BME280;75998;47.550;19.254;2024-03-02T03:24:51;98589.00;;;8.42;81.79
74621;BME280;75998;47.550;19.254;2024-03-02T03:27:16;98533.31;;;8.05;81.67
74621;BME280;75998;47.550;19.254;2024-03-02T03:29:42;98528.84;;;8.07;81.81
74621;BME280;75998;47.550;19.254;2024-03-02T03:32:07;98569.50;;;8.35;81.76
74621;BME280;75998;47.550;19.254;2024-03-02T03:34:33;98556.34;;;8.24;81.43
74621;BME280;75998;47.550;19.254;2024-03-02T03:36:58;98602.25;;;8.52;82.32
74621;BME280;75998;47.550;19.254;2024-03-02T03:39:24;98520.09;;;7.95;82.26
74621;BME280;75998;47.550;19.254;2024-03-02T03:41:49;98542.78;;;8.06;82.41
74621;BME280;75998;47.550;19.254;2024-03-02T03:44:15;98567.47;;;8.13;83.20
74621;BME280;75998;47.550;19.254;2024-03-02T03:46:40;98599.38;;;8.30;83.21
74621;BME280;75998;47.550;19.254;2024-03-02T03:49:06;98597.69;;;8.29;83.07
74621;BME280;75998;47.550;19.254;2024-03-02T03:51:36;98488.00;;;7.42;83.54
74621;BME280;75998;47.550;19.254;2024-03-02T03:54:01;98553.34;;;7.90;84.04
74621;BME280;75998;47.550;19.254;2024-03-02T03:56:26;98620.16;;;8.17;84.35
74621;BME280;75998;47.550;19.254;2024-03-02T03:58:52;98579.88;;;7.83;84.70
74621;BME280;75998;47.550;19.254;2024-03-02T04:04:43;98468.88;;;7.02;84.90
74621;BME280;75998;47.550;19.254;2024-03-02T04:07:09;98435.59;;;6.94;85.34
74621;BME280;75998;47.550;19.254;2024-03-02T04:09:37;98474.88;;;7.17;86.46
74621;BME280;75998;47.550;19.254;2024-03-02T04:12:02;98512.78;;;7.34;86.48
74621;BME280;75998;47.550;19.254;2024-03-02T04:14:28;98501.41;;;7.22;86.67
74621;BME280;75998;47.550;19.254;2024-03-02T04:16:53;98602.97;;;7.87;86.85
74621;BME280;75998;47.550;19.254;2024-03-02T04:19:19;98661.97;;;8.14;87.68
74621;BME280;75998;47.550;19.254;2024-03-02T04:21:44;98608.47;;;7.83;88.09
74621;BME280;75998;47.550;19.254;2024-03-02T04:24:10;98528.38;;;7.34;88.75
74621;BME280;75998;47.550;19.254;2024-03-02T04:26:35;98575.63;;;7.67;88.41
74621;BME280;75998;47.550;19.254;2024-03-02T04:29:01;98631.56;;;8.02;88.74
74621;BME280;75998;47.550;19.254;2024-03-02T04:31:27;98607.19;;;7.75;88.46
74621;BME280;75998;47.550;19.254;2024-03-02T04:33:52;98658.53;;;8.13;88.47
74621;BME280;75998;47.550;19.254;2024-03-02T04:36:22;98540.81;;;7.43;87.96
74621;BME280;75998;47.550;19.254;2024-03-02T04:38:51;98567.03;;;7.52;88.11
74621;BME280;75998;47.550;19.254;2024-03-02T04:41:19;98648.91;;;8.01;89.08
74621;BME280;75998;47.550;19.254;2024-03-02T04:43:47;98544.72;;;7.36;88.52
74621;BME280;75998;47.550;19.254;2024-03-02T04:46:12;98492.16;;;7.03;88.80
74621;BME280;75998;47.550;19.254;2024-03-02T04:48:40;98542.97;;;7.22;89.62
74621;BME280;75998;47.550;19.254;2024-03-02T04:51:06;98615.91;;;7.74;89.12
74621;BME280;75998;47.550;19.254;2024-03-02T04:53:31;98485.22;;;6.90;89.47
74621;BME280;75998;47.550;19.254;2024-03-02T04:55:57;98592.75;;;7.57;89.50
74621;BME280;75998;47.550;19.254;2024-03-02T04:58:40;98653.59;;;7.96;89.29
74621;BME280;75998;47.550;19.254;2024-03-02T05:01:06;98455.28;;;6.55;89.63
74621;BME280;75998;47.550;19.254;2024-03-02T05:03:31;98587.94;;;7.51;89.86
74621;BME280;75998;47.550;19.254;2024-03-02T05:05:59;98515.16;;;7.10;89.73
74621;BME280;75998;47.550;19.254;2024-03-02T05:08:25;98539.34;;;7.24;89.58
74621;BME280;75998;47.550;19.254;2024-03-02T05:10:50;98571.88;;;7.44;89.54
74621;BME280;75998;47.550;19.254;2024-03-02T05:13:16;98662.97;;;7.98;90.01
74621;BME280;75998;47.550;19.254;2024-03-02T05:15:45;98454.81;;;6.77;89.76
74621;BME280;75998;47.550;19.254;2024-03-02T05:18:11;98550.75;;;7.36;89.73
74621;BME280;75998;47.550;19.254;2024-03-02T05:20:36;98661.44;;;8.09;89.79
74621;BME280;75998;47.550;19.254;2024-03-02T05:23:01;98562.16;;;7.34;90.60
74621;BME280;75998;47.550;19.254;2024-03-02T05:25:27;98475.22;;;6.83;90.12
74621;BME280;75998;47.550;19.254;2024-03-02T05:27:52;98422.75;;;6.64;89.65
74621;BME280;75998;47.550;19.254;2024-03-02T05:30:18;98571.25;;;7.68;89.53
74621;BME280;75998;47.550;19.254;2024-03-02T05:32:43;98556.78;;;7.64;89.43
74621;BME280;75998;47.550;19.254;2024-03-02T05:35:09;98660.13;;;7.89;91.01
74621;BME280;75998;47.550;19.254;2024-03-02T05:37:37;98576.47;;;7.26;91.66
74621;BME280;75998;47.550;19.254;2024-03-02T05:40:05;98573.94;;;7.25;92.10
74621;BME280;75998;47.550;19.254;2024-03-02T05:42:37;98606.25;;;7.35;91.59
74621;BME280;75998;47.550;19.254;2024-03-02T05:45:03;98408.41;;;6.16;91.74
74621;BME280;75998;47.550;19.254;2024-03-02T05:47:32;98577.31;;;7.13;91.28
74621;BME280;75998;47.550;19.254;2024-03-02T05:49:58;98565.81;;;7.17;91.31
74621;BME280;75998;47.550;19.254;2024-03-02T05:52:23;98642.59;;;7.64;91.55
74621;BME280;75998;47.550;19.254;2024-03-02T05:54:49;98464.19;;;6.51;90.78
74621;BME280;75998;47.550;19.254;2024-03-02T05:57:15;98692.69;;;7.94;91.71
74621;BME280;75998;47.550;19.254;2024-03-02T06:00:06;98483.75;;;6.57;90.85
74621;BME280;75998;47.550;19.254;2024-03-02T06:02:39;98700.31;;;7.97;91.26
74621;BME280;75998;47.550;19.254;2024-03-02T06:05:06;98665.13;;;7.77;91.31
74621;BME280;75998;47.550;19.254;2024-03-02T06:07:32;98679.91;;;7.77;91.24
74621;BME280;75998;47.550;19.254;2024-03-02T06:09:58;98591.69;;;7.18;91.30
74621;BME280;75998;47.550;19.254;2024-03-02T06:12:23;98670.81;;;7.70;91.61
74621;BME280;75998;47.550;19.254;2024-03-02T06:14:49;98608.47;;;7.27;91.72
74621;BME280;75998;47.550;19.254;2024-03-02T06:17:14;98676.13;;;7.68;91.72
74621;BME280;75998;47.550;19.254;2024-03-02T06:19:40;98695.31;;;7.80;91.53
74621;BME280;75998;47.550;19.254;2024-03-02T06:22:06;98618.03;;;7.41;91.48
74621;BME280;75998;47.550;19.254;2024-03-02T06:24:31;98669.06;;;7.70;91.79
74621;BME280;75998;47.550;19.254;2024-03-02T06:26:57;98630.19;;;7.40;92.10
74621;BME280;75998;47.550;19.254;2024-03-02T06:29:24;98675.91;;;7.71;92.02
74621;BME280;75998;47.550;19.254;2024-03-02T06:31:49;98600.97;;;7.22;91.99
74621;BME280;75998;47.550;19.254;2024-03-02T06:34:15;98538.91;;;6.75;91.93
74621;BME280;75998;47.550;19.254;2024-03-02T06:36:40;98479.94;;;6.48;91.90
74621;BME280;75998;47.550;19.254;2024-03-02T06:39:10;98664.53;;;7.60;91.73
74621;BME280;75998;47.550;19.254;2024-03-02T06:41:37;98551.34;;;6.98;91.66
74621;BME280;75998;47.550;19.254;2024-03-02T06:44:03;98708.91;;;7.85;92.39
74621;BME280;75998;47.550;19.254;2024-03-02T06:46:29;98710.00;;;7.95;91.93
74621;BME280;75998;47.550;19.254;2024-03-02T06:48:54;98722.16;;;7.95;92.22
74621;BME280;75998;47.550;19.254;2024-03-02T06:51:20;98598.28;;;7.24;91.36
74621;BME280;75998;47.550;19.254;2024-03-02T06:53:45;98627.09;;;7.48;91.97
74621;BME280;75998;47.550;19.254;2024-03-02T06:56:14;98715.00;;;7.98;91.92
74621;BME280;75998;47.550;19.254;2024-03-02T06:58:43;98717.50;;;8.00;91.94
74621;BME280;75998;47.550;19.254;2024-03-02T07:01:09;98563.22;;;7.02;91.30
74621;BME280;75998;47.550;19.254;2024-03-02T07:03:37;98702.91;;;7.97;91.83
74621;BME280;75998;47.550;19.254;2024-03-02T07:06:05;98706.16;;;8.01;92.21
74621;BME280;75998;47.550;19.254;2024-03-02T07:08:30;98654.66;;;7.65;92.15
74621;BME280;75998;47.550;19.254;2024-03-02T07:10:56;98623.88;;;7.59;91.58
74621;BME280;75998;47.550;19.254;2024-03-02T07:13:22;98664.41;;;7.75;91.90
74621;BME280;75998;47.550;19.254;2024-03-02T07:15:48;98540.03;;;6.99;91.81
74621;BME280;75998;47.550;19.254;2024-03-02T07:18:48;98655.47;;;7.80;92.71
74621;BME280;75998;47.550;19.254;2024-03-02T07:21:17;98544.75;;;7.07;91.74
74621;BME280;75998;47.550;19.254;2024-03-02T07:23:43;98568.66;;;7.26;92.40
74621;BME280;75998;47.550;19.254;2024-03-02T07:26:08;98476.13;;;6.68;91.81
74621;BME280;75998;47.550;19.254;2024-03-02T07:28:34;98716.16;;;8.21;92.62
74621;BME280;75998;47.550;19.254;2024-03-02T07:31:04;98725.19;;;8.16;92.21
74621;BME280;75998;47.550;19.254;2024-03-02T07:33:30;98563.00;;;7.34;92.36
74621;BME280;75998;47.550;19.254;2024-03-02T07:35:55;98655.03;;;7.73;92.31
74621;BME280;75998;47.550;19.254;2024-03-02T07:38:21;98644.19;;;7.66;92.71
74621;BME280;75998;47.550;19.254;2024-03-02T07:40:48;98685.81;;;7.93;92.58
74621;BME280;75998;47.550;19.254;2024-03-02T07:43:16;98694.00;;;7.87;92.24
74621;BME280;75998;47.550;19.254;2024-03-02T07:45:42;98724.28;;;8.03;92.32
74621;BME280;75998;47.550;19.254;2024-03-02T07:48:07;98697.44;;;7.88;92.71
74621;BME280;75998;47.550;19.254;2024-03-02T07:50:33;98667.84;;;7.76;92.70
74621;BME280;75998;47.550;19.254;2024-03-02T07:53:00;98648.75;;;7.48;92.99
74621;BME280;75998;47.550;19.254;2024-03-02T07:55:26;98654.16;;;7.45;92.72
74621;BME280;75998;47.550;19.254;2024-03-02T07:57:51;98703.69;;;7.85;93.28
74621;BME280;75998;47.550;19.254;2024-03-02T08:00:17;98661.47;;;7.53;93.48
74621;BME280;75998;47.550;19.254;2024-03-02T08:02:42;98637.50;;;7.48;93.50
74621;BME280;75998;47.550;19.254;2024-03-02T08:05:08;98714.56;;;7.92;93.48
74621;BME280;75998;47.550;19.254;2024-03-02T08:07:34;98603.75;;;7.19;93.61
74621;BME280;75998;47.550;19.254;2024-03-02T08:10:00;98740.34;;;8.09;93.60
74621;BME280;75998;47.550;19.254;2024-03-02T08:12:25;98550.88;;;6.92;93.21
74621;BME280;75998;47.550;19.254;2024-03-02T08:14:50;98677.69;;;7.71;93.83
74621;BME280;75998;47.550;19.254;2024-03-02T08:17:16;98587.91;;;7.10;93.08
74621;BME280;75998;47.550;19.254;2024-03-02T08:19:42;98715.94;;;7.83;93.66
74621;BME280;75998;47.550;19.254;2024-03-02T08:22:08;98680.66;;;7.65;93.73
74621;BME280;75998;47.550;19.254;2024-03-02T08:24:33;98637.34;;;7.37;93.93
74621;BME280;75998;47.550;19.254;2024-03-02T08:26:59;98697.38;;;7.75;93.86
74621;BME280;75998;47.550;19.254;2024-03-02T08:29:25;98669.06;;;7.56;94.00
74621;BME280;75998;47.550;19.254;2024-03-02T08:31:51;98653.09;;;7.48;93.74
74621;BME280;75998;47.550;19.254;2024-03-02T08:34:16;98693.22;;;7.72;94.42
74621;BME280;75998;47.550;19.254;2024-03-02T08:36:41;98759.09;;;8.14;94.67
74621;BME280;75998;47.550;19.254;2024-03-02T08:39:10;98756.97;;;8.07;94.21
74621;BME280;75998;47.550;19.254;2024-03-02T08:41:42;98733.28;;;7.97;94.79
74621;BME280;75998;47.550;19.254;2024-03-02T08:44:08;98628.78;;;7.35;94.10
74621;BME280;75998;47.550;19.254;2024-03-02T08:46:34;98690.31;;;7.77;94.51
74621;BME280;75998;47.550;19.254;2024-03-02T08:49:00;98763.38;;;8.15;94.77
74621;BME280;75998;47.550;19.254;2024-03-02T08:51:25;98711.50;;;7.85;95.18
74621;BME280;75998;47.550;19.254;2024-03-02T08:53:50;98681.69;;;7.76;95.01
74621;BME280;75998;47.550;19.254;2024-03-02T08:56:16;98573.13;;;7.10;95.00
74621;BME280;75998;47.550;19.254;2024-03-02T08:58:41;98631.09;;;7.53;94.65
74621;BME280;75998;47.550;19.254;2024-03-02T09:01:08;98657.63;;;7.73;94.62
74621;BME280;75998;47.550;19.254;2024-03-02T09:03:34;98593.53;;;7.30;94.86
74621;BME280;75998;47.550;19.254;2024-03-02T09:06:00;98715.72;;;8.15;94.56
74621;BME280;75998;47.550;19.254;2024-03-02T09:08:25;98643.88;;;7.71;94.71
74621;BME280;75998;47.550;19.254;2024-03-02T09:10:51;98703.41;;;8.17;94.72
74621;BME280;75998;47.550;19.254;2024-03-02T09:13:17;98696.88;;;8.24;94.34
74621;BME280;75998;47.550;19.254;2024-03-02T09:15:42;98760.94;;;8.68;94.59
74621;BME280;75998;47.550;19.254;2024-03-02T09:18:09;98720.22;;;8.40;93.98
74621;BME280;75998;47.550;19.254;2024-03-02T09:20:35;98711.09;;;8.33;93.64
74621;BME280;75998;47.550;19.254;2024-03-02T09:23:01;98672.50;;;8.12;93.07
74621;BME280;75998;47.550;19.254;2024-03-02T09:25:26;98649.97;;;7.98;93.33
74621;BME280;75998;47.550;19.254;2024-03-02T09:27:52;98670.28;;;8.06;93.24
74621;BME280;75998;47.550;19.254;2024-03-02T09:30:17;98697.53;;;8.28;93.27
74621;BME280;75998;47.550;19.254;2024-03-02T09:32:43;98658.59;;;7.99;93.28
74621;BME280;75998;47.550;19.254;2024-03-02T09:35:08;98618.81;;;7.70;92.96
74621;BME280;75998;47.550;19.254;2024-03-02T09:37:34;98724.81;;;8.49;93.40
74621;BME280;75998;47.550;19.254;2024-03-02T09:40:01;98735.00;;;8.39;93.02
74621;BME280;75998;47.550;19.254;2024-03-02T09:42:26;98760.66;;;8.45;94.03
74621;BME280;75998;47.550;19.254;2024-03-02T09:44:52;98739.41;;;8.37;94.09
74621;BME280;75998;47.550;19.254;2024-03-02T09:47:18;98663.53;;;7.89;94.10
74621;BME280;75998;47.550;19.254;2024-03-02T09:49:43;98755.09;;;8.64;94.44
74621;BME280;75998;47.550;19.254;2024-03-02T09:52:10;98762.72;;;8.80;94.23
74621;BME280;75998;47.550;19.254;2024-03-02T09:54:36;98603.09;;;7.86;93.85
74621;BME280;75998;47.550;19.254;2024-03-02T09:57:02;98763.00;;;8.63;93.79
74621;BME280;75998;47.550;19.254;2024-03-02T09:59:28;98627.47;;;7.97;93.65
74621;BME280;75998;47.550;19.254;2024-03-02T10:02:01;98688.31;;;8.36;93.29
74621;BME280;75998;47.550;19.254;2024-03-02T10:04:28;98754.84;;;8.55;93.40
74621;BME280;75998;47.550;19.254;2024-03-02T10:07:17;98764.06;;;8.73;93.96
74621;BME280;75998;47.550;19.254;2024-03-02T10:09:45;98753.97;;;8.68;93.73
74621;BME280;75998;47.550;19.254;2024-03-02T10:12:11;98630.13;;;7.83;93.42
74621;BME280;75998;47.550;19.254;2024-03-02T10:14:37;98566.03;;;7.41;93.45
74621;BME280;75998;47.550;19.254;2024-03-02T10:17:05;98714.00;;;8.28;93.69
74621;BME280;75998;47.550;19.254;2024-03-02T10:19:32;98771.94;;;8.59;93.63
74621;BME280;75998;47.550;19.254;2024-03-02T10:22:00;98698.13;;;8.18;93.20
74621;BME280;75998;47.550;19.254;2024-03-02T10:24:26;98632.06;;;7.80;93.34
74621;BME280;75998;47.550;19.254;2024-03-02T10:26:52;98675.19;;;8.11;92.94
74621;BME280;75998;47.550;19.254;2024-03-02T10:29:18;98749.72;;;8.53;93.28
74621;BME280;75998;47.550;19.254;2024-03-02T10:31:45;98673.78;;;8.19;93.33
74621;BME280;75998;47.550;19.254;2024-03-02T10:34:12;98652.00;;;7.93;93.08
74621;BME280;75998;47.550;19.254;2024-03-02T10:36:40;98734.31;;;8.50;92.75
74621;BME280;75998;47.550;19.254;2024-03-02T10:39:08;98657.41;;;7.90;92.83
74621;BME280;75998;47.550;19.254;2024-03-02T10:41:37;98742.13;;;8.50;93.21
74621;BME280;75998;47.550;19.254;2024-03-02T10:44:04;98641.78;;;7.90;93.18
74621;BME280;75998;47.550;19.254;2024-03-02T10:46:31;98656.19;;;7.96;93.81
74621;BME280;75998;47.550;19.254;2024-03-02T10:48:58;98744.09;;;8.46;93.75
74621;BME280;75998;47.550;19.254;2024-03-02T10:51:28;98757.97;;;8.60;94.21
74621;BME280;75998;47.550;19.254;2024-03-02T10:53:57;98653.84;;;8.06;93.82
74621;BME280;75998;47.550;19.254;2024-03-02T10:56:28;98745.28;;;8.55;94.00
74621;BME280;75998;47.550;19.254;2024-03-02T10:59:05;98758.53;;;8.65;94.57
74621;BME280;75998;47.550;19.254;2024-03-02T11:01:32;98753.97;;;8.68;94.29
74621;BME280;75998;47.550;19.254;2024-03-02T11:03:58;98727.31;;;8.51;94.13
74621;BME280;75998;47.550;19.254;2024-03-02T11:06:26;98685.75;;;8.22;94.71
74621;BME280;75998;47.550;19.254;2024-03-02T11:08:55;98614.13;;;7.89;94.37
74621;BME280;75998;47.550;19.254;2024-03-02T11:11:30;98636.91;;;8.13;94.09
74621;BME280;75998;47.550;19.254;2024-03-02T11:13:57;98718.91;;;8.60;94.40
74621;BME280;75998;47.550;19.254;2024-03-02T11:16:35;98613.00;;;7.93;94.55
74621;BME280;75998;47.550;19.254;2024-03-02T11:19:06;98733.88;;;8.83;94.24
74621;BME280;75998;47.550;19.254;2024-03-02T11:21:34;98719.19;;;8.82;94.14
74621;BME280;75998;47.550;19.254;2024-03-02T11:23:59;98716.34;;;8.73;93.80
74621;BME280;75998;47.550;19.254;2024-03-02T11:26:25;98600.41;;;8.00;94.14
74621;BME280;75998;47.550;19.254;2024-03-02T11:28:51;98520.00;;;7.43;94.48
74621;BME280;75998;47.550;19.254;2024-03-02T11:31:16;98703.06;;;8.50;94.31
74621;BME280;75998;47.550;19.254;2024-03-02T11:33:44;98640.56;;;8.23;94.10
74621;BME280;75998;47.550;19.254;2024-03-02T11:36:12;98727.31;;;8.78;94.06
74621;BME280;75998;47.550;19.254;2024-03-02T11:38:37;98661.94;;;8.28;94.27
74621;BME280;75998;47.550;19.254;2024-03-02T11:41:06;98687.75;;;8.45;94.13
74621;BME280;75998;47.550;19.254;2024-03-02T11:43:37;98588.88;;;7.77;93.44
74621;BME280;75998;47.550;19.254;2024-03-02T11:46:05;98644.19;;;8.20;94.24
74621;BME280;75998;47.550;19.254;2024-03-02T11:48:35;98725.31;;;8.68;94.13
74621;BME280;75998;47.550;19.254;2024-03-02T11:51:02;98730.72;;;8.65;94.17
74621;BME280;75998;47.550;19.254;2024-03-02T11:53:28;98625.03;;;8.09;94.31
74621;BME280;75998;47.550;19.254;2024-03-02T11:55:58;98685.78;;;8.49;94.48
74621;BME280;75998;47.550;19.254;2024-03-02T11:58:24;98551.34;;;7.81;94.63
74621;BME280;75998;47.550;19.254;2024-03-02T12:00:56;98623.41;;;8.33;94.29
74621;BME280;75998;47.550;19.254;2024-03-02T12:03:23;98743.69;;;8.92;94.47
74621;BME280;75998;47.550;19.254;2024-03-02T12:05:57;98709.16;;;8.76;93.80
74621;BME280;75998;47.550;19.254;2024-03-02T12:08:23;98642.38;;;8.35;94.05
74621;BME280;75998;47.550;19.254;2024-03-02T12:10:58;98441.34;;;6.99;94.01
74621;BME280;75998;47.550;19.254;2024-03-02T12:13:24;98706.44;;;8.65;94.31
74621;BME280;75998;47.550;19.254;2024-03-02T12:15:55;98691.38;;;8.43;94.31
74621;BME280;75998;47.550;19.254;2024-03-02T12:18:21;98721.31;;;8.63;94.18
74621;BME280;75998;47.550;19.254;2024-03-02T12:20:50;98636.56;;;8.05;94.28
74621;BME280;75998;47.550;19.254;2024-03-02T12:23:18;98727.25;;;8.52;94.48
74621;BME280;75998;47.550;19.254;2024-03-02T12:25:44;98663.13;;;8.10;94.52
74621;BME280;75998;47.550;19.254;2024-03-02T12:28:09;98696.69;;;8.27;94.27
74621;BME280;75998;47.550;19.254;2024-03-02T12:30:35;98631.59;;;7.87;94.47
74621;BME280;75998;47.550;19.254;2024-03-02T12:33:01;98697.00;;;8.22;94.23
74621;BME280;75998;47.550;19.254;2024-03-02T12:35:27;98652.38;;;7.87;94.13
74621;BME280;75998;47.550;19.254;2024-03-02T12:37:53;98657.41;;;7.90;93.81
74621;BME280;75998;47.550;19.254;2024-03-02T12:40:22;98736.81;;;8.37;94.18
74621;BME280;75998;47.550;19.254;2024-03-02T12:42:49;98686.53;;;8.10;94.22
74621;BME280;75998;47.550;19.254;2024-03-02T12:45:15;98712.63;;;8.22;93.85
74621;BME280;75998;47.550;19.254;2024-03-02T12:47:46;98723.66;;;8.26;94.40
74621;BME280;75998;47.550;19.254;2024-03-02T12:50:21;98727.34;;;8.36;94.12
74621;BME280;75998;47.550;19.254;2024-03-02T12:52:51;98700.75;;;8.18;94.17
74621;BME280;75998;47.550;19.254;2024-03-02T12:55:17;98670.59;;;8.02;94.46
74621;BME280;75998;47.550;19.254;2024-03-02T12:57:43;98729.69;;;8.41;94.30
74621;BME280;75998;47.550;19.254;2024-03-02T13:00:21;98732.34;;;8.54;94.13
74621;BME280;75998;47.550;19.254;2024-03-02T13:02:47;98717.13;;;8.33;94.11
74621;BME280;75998;47.550;19.254;2024-03-02T13:05:21;98710.78;;;8.37;93.65